sensor_id;sensor_type;location;lat;lon;timestamp;temperature;humidity
1329;DHT22;658;48.820;9.354;2023-03-14T00:00:25;23.30;41.70
1329;DHT22;658;48.820;9.354;2023-03-14T00:04:25;23.30;41.70
1329;DHT22;658;48.820;9.354;2023-03-14T00:08:26;23.20;41.70
1329;DHT22;658;48.820;9.354;2023-03-14T00:12:27;23.20;41.70
1329;DHT22;658;48.820;9.354;2023-03-14T00:16:27;23.20;41.80
1329;DHT22;658;48.820;9.354;2023-03-14T00:20:28;23.20;41.80
1329;DHT22;658;48.820;9.354;2023-03-14T00:24:28;23.20;41.90
1329;DHT22;658;48.820;9.354;2023-03-14T00:28:29;23.20;41.90
1329;DHT22;658;48.820;9.354;2023-03-14T00:32:30;23.10;41.80
1329;DHT22;658;48.820;9.354;2023-03-14T00:36:31;23.10;41.90
1329;DHT22;658;48.820;9.354;2023-03-14T00:40:31;23.10;41.90
1329;DHT22;658;48.820;9.354;2023-03-14T00:44:32;23.10;41.90
1329;DHT22;658;48.820;9.354;2023-03-14T00:48:35;23.00;41.80
1329;DHT22;658;48.820;9.354;2023-03-14T00:52:35;23.00;41.90
1329;DHT22;658;48.820;9.354;2023-03-14T00:56:36;23.00;41.90
1329;DHT22;658;48.820;9.354;2023-03-14T01:00:37;23.00;41.90
1329;DHT22;658;48.820;9.354;2023-03-14T01:04:38;23.00;41.90
1329;DHT22;658;48.820;9.354;2023-03-14T01:08:39;23.00;41.90
1329;DHT22;658;48.820;9.354;2023-03-14T01:12:40;23.00;42.00
1329;DHT22;658;48.820;9.354;2023-03-14T01:16:41;23.00;42.00
1329;DHT22;658;48.820;9.354;2023-03-14T01:20:41;23.00;42.00
1329;DHT22;658;48.820;9.354;2023-03-14T01:24:42;22.90;41.90
1329;DHT22;658;48.820;9.354;2023-03-14T01:28:42;22.90;41.90
1329;DHT22;658;48.820;9.354;2023-03-14T01:32:43;22.90;41.90
1329;DHT22;658;48.820;9.354;2023-03-14T01:36:44;22.90;42.00
1329;DHT22;658;48.820;9.354;2023-03-14T01:40:44;22.90;42.00
1329;DHT22;658;48.820;9.354;2023-03-14T01:44:53;22.90;42.00
1329;DHT22;658;48.820;9.354;2023-03-14T01:49:02;22.90;42.00
1329;DHT22;658;48.820;9.354;2023-03-14T01:53:04;22.80;41.90
1329;DHT22;658;48.820;9.354;2023-03-14T01:57:20;22.80;41.90
1329;DHT22;658;48.820;9.354;2023-03-14T02:01:24;22.80;41.90
1329;DHT22;658;48.820;9.354;2023-03-14T02:05:32;22.80;42.00
1329;DHT22;658;48.820;9.354;2023-03-14T02:09:33;22.80;42.00
1329;DHT22;658;48.820;9.354;2023-03-14T02:13:34;22.80;42.00
1329;DHT22;658;48.820;9.354;2023-03-14T02:17:35;22.80;42.00
1329;DHT22;658;48.820;9.354;2023-03-14T02:26:23;22.80;42.00
1329;DHT22;658;48.820;9.354;2023-03-14T02:30:28;22.80;42.10
1329;DHT22;658;48.820;9.354;2023-03-14T02:34:30;22.70;42.00
1329;DHT22;658;48.820;9.354;2023-03-14T02:39:01;22.70;42.00
1329;DHT22;658;48.820;9.354;2023-03-14T02:43:06;22.70;42.00
1329;DHT22;658;48.820;9.354;2023-03-14T02:47:06;22.70;42.10
1329;DHT22;658;48.820;9.354;2023-03-14T02:51:07;22.70;42.10
1329;DHT22;658;48.820;9.354;2023-03-14T02:55:09;22.70;42.10
1329;DHT22;658;48.820;9.354;2023-03-14T02:59:09;22.70;42.20
1329;DHT22;658;48.820;9.354;2023-03-14T03:03:10;22.60;42.10
1329;DHT22;658;48.820;9.354;2023-03-14T03:07:11;22.60;42.00
1329;DHT22;658;48.820;9.354;2023-03-14T03:11:11;22.60;42.10
1329;DHT22;658;48.820;9.354;2023-03-14T03:15:12;22.60;42.10
1329;DHT22;658;48.820;9.354;2023-03-14T03:19:13;22.60;42.10
1329;DHT22;658;48.820;9.354;2023-03-14T03:23:14;22.60;42.10
1329;DHT22;658;48.820;9.354;2023-03-14T03:27:14;22.60;42.10
1329;DHT22;658;48.820;9.354;2023-03-14T03:31:15;22.60;42.10
1329;DHT22;658;48.820;9.354;2023-03-14T03:35:15;22.60;42.10
1329;DHT22;658;48.820;9.354;2023-03-14T03:39:16;22.60;42.10
1329;DHT22;658;48.820;9.354;2023-03-14T03:43:17;22.60;42.10
1329;DHT22;658;48.820;9.354;2023-03-14T03:47:18;22.50;42.10
1329;DHT22;658;48.820;9.354;2023-03-14T03:51:19;22.50;42.10
1329;DHT22;658;48.820;9.354;2023-03-14T03:55:19;22.50;42.10
1329;DHT22;658;48.820;9.354;2023-03-14T03:59:20;22.50;42.10
1329;DHT22;658;48.820;9.354;2023-03-14T04:03:21;22.50;42.10
1329;DHT22;658;48.820;9.354;2023-03-14T04:07:21;22.50;42.10
1329;DHT22;658;48.820;9.354;2023-03-14T04:11:22;22.50;42.10
1329;DHT22;658;48.820;9.354;2023-03-14T04:15:23;22.50;42.20
1329;DHT22;658;48.820;9.354;2023-03-14T04:19:23;22.50;42.20
1329;DHT22;658;48.820;9.354;2023-03-14T04:23:24;22.50;42.20
1329;DHT22;658;48.820;9.354;2023-03-14T04:27:25;22.50;42.20
1329;DHT22;658;48.820;9.354;2023-03-14T04:31:26;22.50;42.30
1329;DHT22;658;48.820;9.354;2023-03-14T04:35:27;22.40;42.20
1329;DHT22;658;48.820;9.354;2023-03-14T04:39:27;22.40;42.20
1329;DHT22;658;48.820;9.354;2023-03-14T04:43:28;22.40;42.20
1329;DHT22;658;48.820;9.354;2023-03-14T04:47:28;22.40;42.30
1329;DHT22;658;48.820;9.354;2023-03-14T04:51:29;22.40;42.30
1329;DHT22;658;48.820;9.354;2023-03-14T04:55:31;22.40;42.20
1329;DHT22;658;48.820;9.354;2023-03-14T04:59:32;22.40;42.20
1329;DHT22;658;48.820;9.354;2023-03-14T05:03:33;22.40;42.30
1329;DHT22;658;48.820;9.354;2023-03-14T05:07:33;22.40;42.20
1329;DHT22;658;48.820;9.354;2023-03-14T05:11:34;22.40;42.20
1329;DHT22;658;48.820;9.354;2023-03-14T05:15:34;22.40;42.20
1329;DHT22;658;48.820;9.354;2023-03-14T05:19:35;22.40;42.20
1329;DHT22;658;48.820;9.354;2023-03-14T05:23:36;22.30;42.20
1329;DHT22;658;48.820;9.354;2023-03-14T05:27:36;22.30;42.10
1329;DHT22;658;48.820;9.354;2023-03-14T05:31:37;22.30;42.20
1329;DHT22;658;48.820;9.354;2023-03-14T05:35:37;22.30;42.20
1329;DHT22;658;48.820;9.354;2023-03-14T05:39:38;22.30;42.20
1329;DHT22;658;48.820;9.354;2023-03-14T05:43:39;22.30;42.20
1329;DHT22;658;48.820;9.354;2023-03-14T05:47:40;22.30;42.20
1329;DHT22;658;48.820;9.354;2023-03-14T05:51:40;22.30;42.40
1329;DHT22;658;48.820;9.354;2023-03-14T05:55:41;22.40;42.40
1329;DHT22;658;48.820;9.354;2023-03-14T05:59:41;22.40;42.40
1329;DHT22;658;48.820;9.354;2023-03-14T06:03:42;22.50;42.30
1329;DHT22;658;48.820;9.354;2023-03-14T06:07:42;22.50;42.30
1329;DHT22;658;48.820;9.354;2023-03-14T06:11:43;22.50;42.20
1329;DHT22;658;48.820;9.354;2023-03-14T06:15:44;22.50;42.20
1329;DHT22;658;48.820;9.354;2023-03-14T06:19:44;22.50;42.20
1329;DHT22;658;48.820;9.354;2023-03-14T06:23:45;22.50;42.30
1329;DHT22;658;48.820;9.354;2023-03-14T06:27:46;22.50;42.20
1329;DHT22;658;48.820;9.354;2023-03-14T06:31:46;22.50;42.20
1329;DHT22;658;48.820;9.354;2023-03-14T06:35:47;22.50;42.10
1329;DHT22;658;48.820;9.354;2023-03-14T06:39:47;22.50;42.60
1329;DHT22;658;48.820;9.354;2023-03-14T06:43:48;22.50;41.80
1329;DHT22;658;48.820;9.354;2023-03-14T06:47:49;22.50;40.40
1329;DHT22;658;48.820;9.354;2023-03-14T06:51:49;22.40;40.20
1329;DHT22;658;48.820;9.354;2023-03-14T06:55:50;22.30;40.60
1329;DHT22;658;48.820;9.354;2023-03-14T06:59:50;22.30;40.80
1329;DHT22;658;48.820;9.354;2023-03-14T07:03:51;22.20;40.50
1329;DHT22;658;48.820;9.354;2023-03-14T07:07:52;22.20;40.40
1329;DHT22;658;48.820;9.354;2023-03-14T07:11:52;22.20;40.60
1329;DHT22;658;48.820;9.354;2023-03-14T07:15:53;22.30;40.80
1329;DHT22;658;48.820;9.354;2023-03-14T07:19:53;22.30;40.70
1329;DHT22;658;48.820;9.354;2023-03-14T07:23:54;22.40;40.80
1329;DHT22;658;48.820;9.354;2023-03-14T07:27:55;22.50;40.70
1329;DHT22;658;48.820;9.354;2023-03-14T07:31:55;22.60;40.60
1329;DHT22;658;48.820;9.354;2023-03-14T07:35:56;22.70;40.80
1329;DHT22;658;48.820;9.354;2023-03-14T07:39:57;22.80;40.60
1329;DHT22;658;48.820;9.354;2023-03-14T07:43:57;22.90;40.70
1329;DHT22;658;48.820;9.354;2023-03-14T07:47:58;23.00;40.70
1329;DHT22;658;48.820;9.354;2023-03-14T07:51:58;23.10;40.70
1329;DHT22;658;48.820;9.354;2023-03-14T07:55:59;23.10;40.60
1329;DHT22;658;48.820;9.354;2023-03-14T08:00:00;23.20;40.60
1329;DHT22;658;48.820;9.354;2023-03-14T08:04:00;23.20;40.50
1329;DHT22;658;48.820;9.354;2023-03-14T08:08:01;23.30;40.60
1329;DHT22;658;48.820;9.354;2023-03-14T08:12:02;23.40;40.60
1329;DHT22;658;48.820;9.354;2023-03-14T08:16:03;23.50;40.50
1329;DHT22;658;48.820;9.354;2023-03-14T08:20:04;23.50;41.10
1329;DHT22;658;48.820;9.354;2023-03-14T08:24:09;23.60;40.50
1329;DHT22;658;48.820;9.354;2023-03-14T08:28:09;23.70;40.60
1329;DHT22;658;48.820;9.354;2023-03-14T08:32:10;23.70;40.40
1329;DHT22;658;48.820;9.354;2023-03-14T08:36:10;23.70;40.40
1329;DHT22;658;48.820;9.354;2023-03-14T08:40:11;23.80;40.50
1329;DHT22;658;48.820;9.354;2023-03-14T08:44:12;23.80;40.50
1329;DHT22;658;48.820;9.354;2023-03-14T08:48:13;23.90;40.40
1329;DHT22;658;48.820;9.354;2023-03-14T08:52:13;24.00;40.50
1329;DHT22;658;48.820;9.354;2023-03-14T08:56:16;24.00;40.40
1329;DHT22;658;48.820;9.354;2023-03-14T09:00:17;24.10;40.30
1329;DHT22;658;48.820;9.354;2023-03-14T09:04:18;24.10;40.20
1329;DHT22;658;48.820;9.354;2023-03-14T09:08:19;24.10;40.10
1329;DHT22;658;48.820;9.354;2023-03-14T09:12:19;24.10;40.10
1329;DHT22;658;48.820;9.354;2023-03-14T09:16:20;24.10;39.90
1329;DHT22;658;48.820;9.354;2023-03-14T09:20:21;24.10;39.80
1329;DHT22;658;48.820;9.354;2023-03-14T09:24:21;24.20;39.70
1329;DHT22;658;48.820;9.354;2023-03-14T09:28:22;24.20;39.60
1329;DHT22;658;48.820;9.354;2023-03-14T09:32:23;24.20;39.50
1329;DHT22;658;48.820;9.354;2023-03-14T09:36:23;24.20;39.40
1329;DHT22;658;48.820;9.354;2023-03-14T09:40:24;24.30;39.30
1329;DHT22;658;48.820;9.354;2023-03-14T09:44:31;24.30;39.30
1329;DHT22;658;48.820;9.354;2023-03-14T09:48:33;24.30;39.70
1329;DHT22;658;48.820;9.354;2023-03-14T09:52:39;24.40;39.60
1329;DHT22;658;48.820;9.354;2023-03-14T09:56:43;24.50;39.70
1329;DHT22;658;48.820;9.354;2023-03-14T10:00:44;24.50;39.60
1329;DHT22;658;48.820;9.354;2023-03-14T10:04:46;24.60;39.70
1329;DHT22;658;48.820;9.354;2023-03-14T10:08:47;24.60;39.70
1329;DHT22;658;48.820;9.354;2023-03-14T10:12:58;24.60;39.60
1329;DHT22;658;48.820;9.354;2023-03-14T10:17:11;24.70;39.60
1329;DHT22;658;48.820;9.354;2023-03-14T10:21:24;24.70;39.50
1329;DHT22;658;48.820;9.354;2023-03-14T10:25:29;24.70;40.10
1329;DHT22;658;48.820;9.354;2023-03-14T10:29:32;24.80;39.40
1329;DHT22;658;48.820;9.354;2023-03-14T10:33:35;24.80;39.40
1329;DHT22;658;48.820;9.354;2023-03-14T10:37:36;24.90;39.40
1329;DHT22;658;48.820;9.354;2023-03-14T10:42:11;25.00;39.30
1329;DHT22;658;48.820;9.354;2023-03-14T10:46:18;25.20;39.20
1329;DHT22;658;48.820;9.354;2023-03-14T10:50:28;25.20;39.30
1329;DHT22;658;48.820;9.354;2023-03-14T10:54:30;25.20;39.00
1329;DHT22;658;48.820;9.354;2023-03-14T10:58:35;25.10;38.90
1329;DHT22;658;48.820;9.354;2023-03-14T11:07:09;25.00;38.80
1329;DHT22;658;48.820;9.354;2023-03-14T11:11:25;25.00;38.80
1329;DHT22;658;48.820;9.354;2023-03-14T11:15:37;25.00;38.80
1329;DHT22;658;48.820;9.354;2023-03-14T11:28:26;24.80;38.90
1329;DHT22;658;48.820;9.354;2023-03-14T11:37:01;24.70;38.90
1329;DHT22;658;48.820;9.354;2023-03-14T11:45:36;24.60;39.00
1329;DHT22;658;48.820;9.354;2023-03-14T11:49:45;24.60;39.10
1329;DHT22;658;48.820;9.354;2023-03-14T11:54:31;24.50;39.10
1329;DHT22;658;48.820;9.354;2023-03-14T11:58:34;24.50;39.20
1329;DHT22;658;48.820;9.354;2023-03-14T12:07:12;24.40;39.20
1329;DHT22;658;48.820;9.354;2023-03-14T12:15:57;24.40;40.20
1329;DHT22;658;48.820;9.354;2023-03-14T12:20:15;24.40;39.70
1329;DHT22;658;48.820;9.354;2023-03-14T12:24:23;24.40;39.90
1329;DHT22;658;48.820;9.354;2023-03-14T12:28:34;24.30;39.80
1329;DHT22;658;48.820;9.354;2023-03-14T12:32:34;24.30;40.00
1329;DHT22;658;48.820;9.354;2023-03-14T12:36:50;24.30;40.00
1329;DHT22;658;48.820;9.354;2023-03-14T12:41:17;24.40;40.20
1329;DHT22;658;48.820;9.354;2023-03-14T12:45:35;24.40;40.10
1329;DHT22;658;48.820;9.354;2023-03-14T12:49:36;24.50;40.70
1329;DHT22;658;48.820;9.354;2023-03-14T12:54:21;24.60;40.60
1329;DHT22;658;48.820;9.354;2023-03-14T13:08:02;24.80;40.40
1329;DHT22;658;48.820;9.354;2023-03-14T13:12:14;24.90;40.30
1329;DHT22;658;48.820;9.354;2023-03-14T13:16:19;25.00;40.10
1329;DHT22;658;48.820;9.354;2023-03-14T13:20:35;25.00;40.10
1329;DHT22;658;48.820;9.354;2023-03-14T13:24:37;25.10;39.90
1329;DHT22;658;48.820;9.354;2023-03-14T13:28:38;25.20;39.70
1329;DHT22;658;48.820;9.354;2023-03-14T13:32:42;25.20;39.60
1329;DHT22;658;48.820;9.354;2023-03-14T13:36:43;25.20;39.60
1329;DHT22;658;48.820;9.354;2023-03-14T13:40:45;25.30;39.50
1329;DHT22;658;48.820;9.354;2023-03-14T13:44:46;25.30;39.40
1329;DHT22;658;48.820;9.354;2023-03-14T13:48:53;25.30;39.20
1329;DHT22;658;48.820;9.354;2023-03-14T13:52:56;25.30;39.70
1329;DHT22;658;48.820;9.354;2023-03-14T13:57:05;25.20;39.10
1329;DHT22;658;48.820;9.354;2023-03-14T14:05:31;25.20;39.10
1329;DHT22;658;48.820;9.354;2023-03-14T14:09:40;25.20;39.10
1329;DHT22;658;48.820;9.354;2023-03-14T14:13:44;25.20;39.20
1329;DHT22;658;48.820;9.354;2023-03-14T14:17:51;25.20;39.10
1329;DHT22;658;48.820;9.354;2023-03-14T14:21:53;25.10;39.20
1329;DHT22;658;48.820;9.354;2023-03-14T14:25:56;25.00;39.30
1329;DHT22;658;48.820;9.354;2023-03-14T14:30:21;25.00;39.80
1329;DHT22;658;48.820;9.354;2023-03-14T14:34:26;25.00;39.70
1329;DHT22;658;48.820;9.354;2023-03-14T14:38:28;24.90;39.70
1329;DHT22;658;48.820;9.354;2023-03-14T14:42:31;24.90;39.70
1329;DHT22;658;48.820;9.354;2023-03-14T14:46:34;24.80;39.50
1329;DHT22;658;48.820;9.354;2023-03-14T14:50:55;24.80;39.40
1329;DHT22;658;48.820;9.354;2023-03-14T14:54:59;24.80;39.40
1329;DHT22;658;48.820;9.354;2023-03-14T14:59:01;24.70;39.40
1329;DHT22;658;48.820;9.354;2023-03-14T15:03:05;24.70;39.60
1329;DHT22;658;48.820;9.354;2023-03-14T15:07:11;24.60;39.60
1329;DHT22;658;48.820;9.354;2023-03-14T15:11:19;24.60;39.50
1329;DHT22;658;48.820;9.354;2023-03-14T15:15:21;24.50;39.30
1329;DHT22;658;48.820;9.354;2023-03-14T15:19:24;24.50;39.40
1329;DHT22;658;48.820;9.354;2023-03-14T15:23:26;24.50;39.20
1329;DHT22;658;48.820;9.354;2023-03-14T15:27:28;24.50;39.30
1329;DHT22;658;48.820;9.354;2023-03-14T15:31:30;24.50;39.50
1329;DHT22;658;48.820;9.354;2023-03-14T15:35:31;24.40;39.40
1329;DHT22;658;48.820;9.354;2023-03-14T15:39:31;24.40;39.30
1329;DHT22;658;48.820;9.354;2023-03-14T15:43:32;24.40;39.50
1329;DHT22;658;48.820;9.354;2023-03-14T15:47:32;24.30;39.60
1329;DHT22;658;48.820;9.354;2023-03-14T15:51:33;24.30;38.90
1329;DHT22;658;48.820;9.354;2023-03-14T15:55:34;24.30;37.70
1329;DHT22;658;48.820;9.354;2023-03-14T15:59:34;24.30;38.00
1329;DHT22;658;48.820;9.354;2023-03-14T16:03:36;24.30;38.40
1329;DHT22;658;48.820;9.354;2023-03-14T16:07:36;24.20;38.40
1329;DHT22;658;48.820;9.354;2023-03-14T16:11:37;24.20;38.40
1329;DHT22;658;48.820;9.354;2023-03-14T16:15:38;24.10;38.40
1329;DHT22;658;48.820;9.354;2023-03-14T16:19:39;24.10;38.40
1329;DHT22;658;48.820;9.354;2023-03-14T16:23:39;24.10;38.40
1329;DHT22;658;48.820;9.354;2023-03-14T16:27:40;24.10;38.40
1329;DHT22;658;48.820;9.354;2023-03-14T16:31:42;24.10;38.30
1329;DHT22;658;48.820;9.354;2023-03-14T16:35:53;24.00;38.20
1329;DHT22;658;48.820;9.354;2023-03-14T16:39:54;24.00;38.20
1329;DHT22;658;48.820;9.354;2023-03-14T16:43:55;23.90;38.20
1329;DHT22;658;48.820;9.354;2023-03-14T16:47:56;23.90;38.20
1329;DHT22;658;48.820;9.354;2023-03-14T16:51:57;23.90;38.30
1329;DHT22;658;48.820;9.354;2023-03-14T16:55:58;23.90;38.30
1329;DHT22;658;48.820;9.354;2023-03-14T16:59:58;23.90;38.30
1329;DHT22;658;48.820;9.354;2023-03-14T17:03:59;23.80;38.30
1329;DHT22;658;48.820;9.354;2023-03-14T17:08:00;23.80;38.30
1329;DHT22;658;48.820;9.354;2023-03-14T17:12:00;23.80;38.40
1329;DHT22;658;48.820;9.354;2023-03-14T17:16:01;23.70;38.30
1329;DHT22;658;48.820;9.354;2023-03-14T17:20:04;23.70;38.30
1329;DHT22;658;48.820;9.354;2023-03-14T17:24:05;23.60;38.30
1329;DHT22;658;48.820;9.354;2023-03-14T17:28:05;23.60;38.40
1329;DHT22;658;48.820;9.354;2023-03-14T17:32:06;23.50;38.40
1329;DHT22;658;48.820;9.354;2023-03-14T17:36:07;23.50;38.50
1329;DHT22;658;48.820;9.354;2023-03-14T17:40:08;23.40;38.60
1329;DHT22;658;48.820;9.354;2023-03-14T17:44:09;23.40;38.70
1329;DHT22;658;48.820;9.354;2023-03-14T17:48:11;23.30;38.80
1329;DHT22;658;48.820;9.354;2023-03-14T17:52:12;23.30;38.90
1329;DHT22;658;48.820;9.354;2023-03-14T17:56:12;23.20;38.90
1329;DHT22;658;48.820;9.354;2023-03-14T18:00:13;23.20;39.00
1329;DHT22;658;48.820;9.354;2023-03-14T18:04:14;23.20;39.10
1329;DHT22;658;48.820;9.354;2023-03-14T18:08:16;23.10;39.00
1329;DHT22;658;48.820;9.354;2023-03-14T18:12:17;23.10;39.10
1329;DHT22;658;48.820;9.354;2023-03-14T18:16:18;23.00;39.10
1329;DHT22;658;48.820;9.354;2023-03-14T18:20:19;23.00;39.70
1329;DHT22;658;48.820;9.354;2023-03-14T18:24:20;23.00;39.20
1329;DHT22;658;48.820;9.354;2023-03-14T18:28:21;22.90;39.20
1329;DHT22;658;48.820;9.354;2023-03-14T18:32:22;22.90;39.30
1329;DHT22;658;48.820;9.354;2023-03-14T18:36:23;22.90;39.30
1329;DHT22;658;48.820;9.354;2023-03-14T18:40:23;22.90;39.30
1329;DHT22;658;48.820;9.354;2023-03-14T18:44:24;22.80;39.30
1329;DHT22;658;48.820;9.354;2023-03-14T18:48:25;22.80;39.40
1329;DHT22;658;48.820;9.354;2023-03-14T18:52:25;22.80;39.50
1329;DHT22;658;48.820;9.354;2023-03-14T18:56:28;22.80;39.50
1329;DHT22;658;48.820;9.354;2023-03-14T19:00:28;22.70;39.50
1329;DHT22;658;48.820;9.354;2023-03-14T19:04:29;22.70;39.50
1329;DHT22;658;48.820;9.354;2023-03-14T19:08:30;22.70;40.10
1329;DHT22;658;48.820;9.354;2023-03-14T19:12:34;22.70;39.60
1329;DHT22;658;48.820;9.354;2023-03-14T19:16:34;22.60;39.50
1329;DHT22;658;48.820;9.354;2023-03-14T19:20:36;22.60;39.60
1329;DHT22;658;48.820;9.354;2023-03-14T19:24:37;22.60;39.60
1329;DHT22;658;48.820;9.354;2023-03-14T19:28:37;22.60;39.60
1329;DHT22;658;48.820;9.354;2023-03-14T19:32:38;22.60;39.70
1329;DHT22;658;48.820;9.354;2023-03-14T19:36:39;22.50;39.70
1329;DHT22;658;48.820;9.354;2023-03-14T19:40:41;22.50;39.70
1329;DHT22;658;48.820;9.354;2023-03-14T19:44:42;22.50;39.70
1329;DHT22;658;48.820;9.354;2023-03-14T19:48:43;22.50;39.70
1329;DHT22;658;48.820;9.354;2023-03-14T19:52:44;22.50;39.80
1329;DHT22;658;48.820;9.354;2023-03-14T19:56:46;22.50;39.80
1329;DHT22;658;48.820;9.354;2023-03-14T20:00:48;22.40;39.70
1329;DHT22;658;48.820;9.354;2023-03-14T20:04:49;22.40;39.70
1329;DHT22;658;48.820;9.354;2023-03-14T20:08:53;22.40;39.80
1329;DHT22;658;48.820;9.354;2023-03-14T20:12:54;22.40;39.80
1329;DHT22;658;48.820;9.354;2023-03-14T20:16:54;22.40;39.80
1329;DHT22;658;48.820;9.354;2023-03-14T20:20:55;22.40;39.80
1329;DHT22;658;48.820;9.354;2023-03-14T20:24:56;22.30;39.70
1329;DHT22;658;48.820;9.354;2023-03-14T20:28:56;22.30;39.70
1329;DHT22;658;48.820;9.354;2023-03-14T20:32:57;22.30;39.80
1329;DHT22;658;48.820;9.354;2023-03-14T20:36:58;22.30;39.80
1329;DHT22;658;48.820;9.354;2023-03-14T20:40:58;22.30;39.80
1329;DHT22;658;48.820;9.354;2023-03-14T20:44:59;22.20;39.80
1329;DHT22;658;48.820;9.354;2023-03-14T20:49:00;22.20;39.80
1329;DHT22;658;48.820;9.354;2023-03-14T20:53:01;22.20;39.80
1329;DHT22;658;48.820;9.354;2023-03-14T20:57:02;22.20;39.80
1329;DHT22;658;48.820;9.354;2023-03-14T21:01:03;22.20;39.80
1329;DHT22;658;48.820;9.354;2023-03-14T21:05:04;22.10;39.80
1329;DHT22;658;48.820;9.354;2023-03-14T21:09:05;22.20;39.80
1329;DHT22;658;48.820;9.354;2023-03-14T21:13:06;22.10;39.80
1329;DHT22;658;48.820;9.354;2023-03-14T21:17:07;22.10;39.80
1329;DHT22;658;48.820;9.354;2023-03-14T21:21:07;22.10;39.80
1329;DHT22;658;48.820;9.354;2023-03-14T21:25:08;22.10;39.90
1329;DHT22;658;48.820;9.354;2023-03-14T21:29:09;22.10;40.00
1329;DHT22;658;48.820;9.354;2023-03-14T21:33:09;22.00;39.90
1329;DHT22;658;48.820;9.354;2023-03-14T21:37:10;22.00;39.90
1329;DHT22;658;48.820;9.354;2023-03-14T21:41:11;22.00;40.00
1329;DHT22;658;48.820;9.354;2023-03-14T21:45:13;22.00;40.30
1329;DHT22;658;48.820;9.354;2023-03-14T21:49:16;22.10;41.50
1329;DHT22;658;48.820;9.354;2023-03-14T21:53:18;22.10;41.10
1329;DHT22;658;48.820;9.354;2023-03-14T21:57:18;22.10;40.80
1329;DHT22;658;48.820;9.354;2023-03-14T22:01:19;22.20;40.70
1329;DHT22;658;48.820;9.354;2023-03-14T22:05:21;22.30;40.90
1329;DHT22;658;48.820;9.354;2023-03-14T22:09:22;22.30;40.50
1329;DHT22;658;48.820;9.354;2023-03-14T22:13:23;22.30;40.50
1329;DHT22;658;48.820;9.354;2023-03-14T22:17:24;22.20;41.00
1329;DHT22;658;48.820;9.354;2023-03-14T22:21:25;22.10;40.40
1329;DHT22;658;48.820;9.354;2023-03-14T22:25:26;22.10;40.50
1329;DHT22;658;48.820;9.354;2023-03-14T22:29:26;22.10;40.40
1329;DHT22;658;48.820;9.354;2023-03-14T22:33:29;22.10;40.40
1329;DHT22;658;48.820;9.354;2023-03-14T22:37:30;22.10;40.40
1329;DHT22;658;48.820;9.354;2023-03-14T22:41:32;22.00;40.50
1329;DHT22;658;48.820;9.354;2023-03-14T22:45:32;22.10;40.30
1329;DHT22;658;48.820;9.354;2023-03-14T22:49:33;22.00;40.30
1329;DHT22;658;48.820;9.354;2023-03-14T22:53:34;22.00;40.30
1329;DHT22;658;48.820;9.354;2023-03-14T22:57:35;22.00;40.30
1329;DHT22;658;48.820;9.354;2023-03-14T23:01:36;22.00;40.30
1329;DHT22;658;48.820;9.354;2023-03-14T23:05:37;22.00;40.30
1329;DHT22;658;48.820;9.354;2023-03-14T23:09:38;21.90;40.20
1329;DHT22;658;48.820;9.354;2023-03-14T23:13:41;21.90;40.20
1329;DHT22;658;48.820;9.354;2023-03-14T23:17:42;21.90;40.20
1329;DHT22;658;48.820;9.354;2023-03-14T23:21:43;21.90;40.10
1329;DHT22;658;48.820;9.354;2023-03-14T23:25:44;21.90;40.10
1329;DHT22;658;48.820;9.354;2023-03-14T23:29:45;21.90;40.00
1329;DHT22;658;48.820;9.354;2023-03-14T23:33:46;21.90;40.00
1329;DHT22;658;48.820;9.354;2023-03-14T23:37:47;21.80;40.00
1329;DHT22;658;48.820;9.354;2023-03-14T23:41:47;21.80;39.90
1329;DHT22;658;48.820;9.354;2023-03-14T23:45:52;21.80;40.00
1329;DHT22;658;48.820;9.354;2023-03-14T23:49:54;21.80;39.90
1329;DHT22;658;48.820;9.354;2023-03-14T23:53:54;21.80;39.90
1329;DHT22;658;48.820;9.354;2023-03-14T23:57:55;21.80;39.90
